sensor_id;sensor_type;location;lat;lon;timestamp;temperature;humidity
20204;DHT22;10261;49.010;12.034;2022-12-07T00:00:16;4.70;99.90
20204;DHT22;10261;49.010;12.034;2022-12-07T00:01:22;4.70;99.90
20204;DHT22;10261;49.010;12.034;2022-12-07T00:02:25;4.70;99.90
20204;DHT22;10261;49.010;12.034;2022-12-07T00:03:27;4.70;99.90
20204;DHT22;10261;49.010;12.034;2022-12-07T00:04:30;4.70;99.90
20204;DHT22;10261;49.010;12.034;2022-12-07T00:05:33;4.70;99.90
20204;DHT22;10261;49.010;12.034;2022-12-07T00:06:37;4.70;99.90
20204;DHT22;10261;49.010;12.034;2022-12-07T00:07:41;4.70;99.90
20204;DHT22;10261;49.010;12.034;2022-12-07T00:08:43;4.60;99.90
20204;DHT22;10261;49.010;12.034;2022-12-07T00:09:46;4.60;99.90
20204;DHT22;10261;49.010;12.034;2022-12-07T00:10:49;4.70;99.90
20204;DHT22;10261;49.010;12.034;2022-12-07T00:11:51;4.70;99.90
20204;DHT22;10261;49.010;12.034;2022-12-07T00:12:55;4.70;99.90
20204;DHT22;10261;49.010;12.034;2022-12-07T00:13:58;4.60;99.90
20204;DHT22;10261;49.010;12.034;2022-12-07T00:15:02;4.50;99.90
20204;DHT22;10261;49.010;12.034;2022-12-07T00:16:07;4.60;99.90
20204;DHT22;10261;49.010;12.034;2022-12-07T00:17:11;4.60;99.90
20204;DHT22;10261;49.010;12.034;2022-12-07T00:18:13;4.60;99.90
20204;DHT22;10261;49.010;12.034;2022-12-07T00:19:16;4.70;99.90
20204;DHT22;10261;49.010;12.034;2022-12-07T00:20:20;4.60;99.90
20204;DHT22;10261;49.010;12.034;2022-12-07T00:21:24;4.50;99.90
20204;DHT22;10261;49.010;12.034;2022-12-07T00:22:27;4.60;99.90
20204;DHT22;10261;49.010;12.034;2022-12-07T00:23:30;4.60;99.90
20204;DHT22;10261;49.010;12.034;2022-12-07T00:24:32;4.60;99.90
20204;DHT22;10261;49.010;12.034;2022-12-07T00:25:35;4.60;99.90
20204;DHT22;10261;49.010;12.034;2022-12-07T00:26:38;4.60;99.90
20204;DHT22;10261;49.010;12.034;2022-12-07T00:27:41;4.60;99.90
20204;DHT22;10261;49.010;12.034;2022-12-07T00:28:45;4.50;99.90
20204;DHT22;10261;49.010;12.034;2022-12-07T00:29:48;4.60;99.90
20204;DHT22;10261;49.010;12.034;2022-12-07T00:30:50;4.70;99.90
20204;DHT22;10261;49.010;12.034;2022-12-07T00:31:53;4.60;99.90
20204;DHT22;10261;49.010;12.034;2022-12-07T00:32:57;4.50;99.90
20204;DHT22;10261;49.010;12.034;2022-12-07T00:33:59;4.50;99.90
20204;DHT22;10261;49.010;12.034;2022-12-07T00:35:03;4.50;99.90
20204;DHT22;10261;49.010;12.034;2022-12-07T00:36:07;4.50;99.90
20204;DHT22;10261;49.010;12.034;2022-12-07T00:37:10;4.50;99.90
20204;DHT22;10261;49.010;12.034;2022-12-07T00:38:14;4.50;99.90
20204;DHT22;10261;49.010;12.034;2022-12-07T00:39:17;4.50;99.90
20204;DHT22;10261;49.010;12.034;2022-12-07T00:40:20;4.50;99.90
20204;DHT22;10261;49.010;12.034;2022-12-07T00:41:23;4.40;99.90
20204;DHT22;10261;49.010;12.034;2022-12-07T00:42:26;4.40;99.90
20204;DHT22;10261;49.010;12.034;2022-12-07T00:43:28;4.40;99.90
20204;DHT22;10261;49.010;12.034;2022-12-07T00:44:31;4.40;99.90
20204;DHT22;10261;49.010;12.034;2022-12-07T00:45:33;4.40;99.90
20204;DHT22;10261;49.010;12.034;2022-12-07T00:46:36;4.40;99.90
20204;DHT22;10261;49.010;12.034;2022-12-07T00:47:38;4.40;99.90
20204;DHT22;10261;49.010;12.034;2022-12-07T00:48:43;4.40;99.90
20204;DHT22;10261;49.010;12.034;2022-12-07T00:49:45;4.40;99.90
20204;DHT22;10261;49.010;12.034;2022-12-07T00:50:48;4.40;99.90
20204;DHT22;10261;49.010;12.034;2022-12-07T00:51:50;4.40;99.90
20204;DHT22;10261;49.010;12.034;2022-12-07T00:52:53;4.40;99.90
20204;DHT22;10261;49.010;12.034;2022-12-07T00:53:55;4.40;99.90
20204;DHT22;10261;49.010;12.034;2022-12-07T00:54:58;4.40;99.90
20204;DHT22;10261;49.010;12.034;2022-12-07T00:56:05;4.40;99.90
20204;DHT22;10261;49.010;12.034;2022-12-07T00:57:08;4.30;99.90
20204;DHT22;10261;49.010;12.034;2022-12-07T00:58:10;4.20;99.90
20204;DHT22;10261;49.010;12.034;2022-12-07T00:59:13;4.30;99.90
20204;DHT22;10261;49.010;12.034;2022-12-07T01:00:17;4.40;99.90
20204;DHT22;10261;49.010;12.034;2022-12-07T01:01:19;4.40;99.90
20204;DHT22;10261;49.010;12.034;2022-12-07T01:02:22;4.50;99.90
20204;DHT22;10261;49.010;12.034;2022-12-07T01:03:24;4.40;99.90
20204;DHT22;10261;49.010;12.034;2022-12-07T01:04:29;4.40;99.90
20204;DHT22;10261;49.010;12.034;2022-12-07T01:05:31;4.50;99.90
20204;DHT22;10261;49.010;12.034;2022-12-07T01:06:34;4.40;99.90
20204;DHT22;10261;49.010;12.034;2022-12-07T01:07:36;4.40;99.90
20204;DHT22;10261;49.010;12.034;2022-12-07T01:08:39;4.50;99.90
20204;DHT22;10261;49.010;12.034;2022-12-07T01:09:41;4.50;99.90
20204;DHT22;10261;49.010;12.034;2022-12-07T01:10:44;4.50;99.90
20204;DHT22;10261;49.010;12.034;2022-12-07T01:11:46;4.50;99.90
20204;DHT22;10261;49.010;12.034;2022-12-07T01:12:49;4.40;99.90
20204;DHT22;10261;49.010;12.034;2022-12-07T01:13:52;4.40;99.90
20204;DHT22;10261;49.010;12.034;2022-12-07T01:14:55;4.40;99.90
20204;DHT22;10261;49.010;12.034;2022-12-07T01:15:58;4.40;99.90
20204;DHT22;10261;49.010;12.034;2022-12-07T01:17:02;4.50;99.90
20204;DHT22;10261;49.010;12.034;2022-12-07T01:18:04;4.50;99.90
20204;DHT22;10261;49.010;12.034;2022-12-07T01:19:07;4.50;99.90
20204;DHT22;10261;49.010;12.034;2022-12-07T01:20:12;4.40;99.90
20204;DHT22;10261;49.010;12.034;2022-12-07T01:21:20;4.50;99.90
20204;DHT22;10261;49.010;12.034;2022-12-07T01:22:22;4.40;99.90
20204;DHT22;10261;49.010;12.034;2022-12-07T01:23:25;4.40;99.90
20204;DHT22;10261;49.010;12.034;2022-12-07T01:24:27;4.30;99.90
20204;DHT22;10261;49.010;12.034;2022-12-07T01:25:30;4.30;99.90
20204;DHT22;10261;49.010;12.034;2022-12-07T01:26:33;4.30;99.90
20204;DHT22;10261;49.010;12.034;2022-12-07T01:27:36;4.30;99.90
20204;DHT22;10261;49.010;12.034;2022-12-07T01:28:38;4.30;99.90
20204;DHT22;10261;49.010;12.034;2022-12-07T01:29:41;4.40;99.90
20204;DHT22;10261;49.010;12.034;2022-12-07T01:30:43;4.40;99.90
20204;DHT22;10261;49.010;12.034;2022-12-07T01:31:48;4.30;99.90
20204;DHT22;10261;49.010;12.034;2022-12-07T01:32:50;4.40;99.90
20204;DHT22;10261;49.010;12.034;2022-12-07T01:33:55;4.50;99.90
20204;DHT22;10261;49.010;12.034;2022-12-07T01:34:57;4.50;99.90
20204;DHT22;10261;49.010;12.034;2022-12-07T01:36:03;4.60;99.90
20204;DHT22;10261;49.010;12.034;2022-12-07T01:37:05;4.60;99.90
20204;DHT22;10261;49.010;12.034;2022-12-07T01:38:08;4.60;99.90
20204;DHT22;10261;49.010;12.034;2022-12-07T01:39:10;4.60;99.90
20204;DHT22;10261;49.010;12.034;2022-12-07T01:40:13;4.60;99.90
20204;DHT22;10261;49.010;12.034;2022-12-07T01:41:15;4.50;99.90
20204;DHT22;10261;49.010;12.034;2022-12-07T01:42:18;4.50;99.90
20204;DHT22;10261;49.010;12.034;2022-12-07T01:43:21;4.40;99.90
20204;DHT22;10261;49.010;12.034;2022-12-07T01:44:26;4.50;99.90
20204;DHT22;10261;49.010;12.034;2022-12-07T01:45:38;4.60;99.90
20204;DHT22;10261;49.010;12.034;2022-12-07T01:46:44;4.50;99.90
20204;DHT22;10261;49.010;12.034;2022-12-07T01:47:50;4.50;99.90
20204;DHT22;10261;49.010;12.034;2022-12-07T01:48:53;4.50;99.90
20204;DHT22;10261;49.010;12.034;2022-12-07T01:49:56;4.40;99.90
20204;DHT22;10261;49.010;12.034;2022-12-07T01:51:04;4.50;99.90
20204;DHT22;10261;49.010;12.034;2022-12-07T01:52:13;4.60;99.90
20204;DHT22;10261;49.010;12.034;2022-12-07T01:53:17;4.50;99.90
20204;DHT22;10261;49.010;12.034;2022-12-07T01:54:21;4.50;99.90
20204;DHT22;10261;49.010;12.034;2022-12-07T01:55:23;4.50;99.90
20204;DHT22;10261;49.010;12.034;2022-12-07T01:56:27;4.50;99.90
20204;DHT22;10261;49.010;12.034;2022-12-07T01:57:31;4.50;99.90
20204;DHT22;10261;49.010;12.034;2022-12-07T01:58:36;4.50;99.90
20204;DHT22;10261;49.010;12.034;2022-12-07T01:59:38;4.60;99.90
20204;DHT22;10261;49.010;12.034;2022-12-07T02:00:42;4.60;99.90
20204;DHT22;10261;49.010;12.034;2022-12-07T02:01:44;4.50;99.90
20204;DHT22;10261;49.010;12.034;2022-12-07T02:02:51;4.60;99.90
20204;DHT22;10261;49.010;12.034;2022-12-07T02:03:55;4.60;99.90
20204;DHT22;10261;49.010;12.034;2022-12-07T02:05:00;4.60;99.90
20204;DHT22;10261;49.010;12.034;2022-12-07T02:06:05;4.60;99.90
20204;DHT22;10261;49.010;12.034;2022-12-07T02:07:08;4.50;99.90
20204;DHT22;10261;49.010;12.034;2022-12-07T02:08:12;4.50;99.90
20204;DHT22;10261;49.010;12.034;2022-12-07T02:09:16;4.40;99.90
20204;DHT22;10261;49.010;12.034;2022-12-07T02:10:19;4.40;99.90
20204;DHT22;10261;49.010;12.034;2022-12-07T02:11:23;4.50;99.90
20204;DHT22;10261;49.010;12.034;2022-12-07T02:12:25;4.50;99.90
20204;DHT22;10261;49.010;12.034;2022-12-07T02:13:31;4.60;99.90
20204;DHT22;10261;49.010;12.034;2022-12-07T02:14:34;4.50;99.90
20204;DHT22;10261;49.010;12.034;2022-12-07T02:15:54;4.50;99.90
20204;DHT22;10261;49.010;12.034;2022-12-07T02:17:08;4.60;99.90
20204;DHT22;10261;49.010;12.034;2022-12-07T02:18:18;4.60;99.90
20204;DHT22;10261;49.010;12.034;2022-12-07T02:20:10;4.60;99.90
20204;DHT22;10261;49.010;12.034;2022-12-07T02:21:22;4.60;99.90
20204;DHT22;10261;49.010;12.034;2022-12-07T02:24:16;4.50;99.90
20204;DHT22;10261;49.010;12.034;2022-12-07T02:25:32;4.50;99.90
20204;DHT22;10261;49.010;12.034;2022-12-07T02:27:04;4.40;99.90
20204;DHT22;10261;49.010;12.034;2022-12-07T02:28:13;4.40;99.90
20204;DHT22;10261;49.010;12.034;2022-12-07T02:29:24;4.40;99.90
20204;DHT22;10261;49.010;12.034;2022-12-07T02:30:30;4.40;99.90
20204;DHT22;10261;49.010;12.034;2022-12-07T02:31:36;4.40;99.90
20204;DHT22;10261;49.010;12.034;2022-12-07T02:32:43;4.40;99.90
20204;DHT22;10261;49.010;12.034;2022-12-07T02:33:51;4.40;99.90
20204;DHT22;10261;49.010;12.034;2022-12-07T02:35:00;4.50;99.90
20204;DHT22;10261;49.010;12.034;2022-12-07T02:36:10;4.40;99.90
20204;DHT22;10261;49.010;12.034;2022-12-07T02:37:21;4.50;99.90
20204;DHT22;10261;49.010;12.034;2022-12-07T02:38:33;4.40;99.90
20204;DHT22;10261;49.010;12.034;2022-12-07T02:39:42;4.40;99.90
20204;DHT22;10261;49.010;12.034;2022-12-07T02:40:50;4.40;99.90
20204;DHT22;10261;49.010;12.034;2022-12-07T02:41:56;4.40;99.90
20204;DHT22;10261;49.010;12.034;2022-12-07T02:43:06;4.40;99.90
20204;DHT22;10261;49.010;12.034;2022-12-07T02:44:13;4.40;99.90
20204;DHT22;10261;49.010;12.034;2022-12-07T02:45:21;4.50;99.90
20204;DHT22;10261;49.010;12.034;2022-12-07T02:46:28;4.50;99.90
20204;DHT22;10261;49.010;12.034;2022-12-07T02:47:32;4.40;99.90
20204;DHT22;10261;49.010;12.034;2022-12-07T02:48:37;4.40;99.90
20204;DHT22;10261;49.010;12.034;2022-12-07T02:49:41;4.30;99.90
20204;DHT22;10261;49.010;12.034;2022-12-07T02:50:45;4.20;99.90
20204;DHT22;10261;49.010;12.034;2022-12-07T02:51:48;4.10;99.90
20204;DHT22;10261;49.010;12.034;2022-12-07T02:52:51;4.20;99.90
20204;DHT22;10261;49.010;12.034;2022-12-07T02:53:53;4.00;99.90
20204;DHT22;10261;49.010;12.034;2022-12-07T02:54:56;3.90;99.90
20204;DHT22;10261;49.010;12.034;2022-12-07T02:56:00;3.90;99.90
20204;DHT22;10261;49.010;12.034;2022-12-07T02:57:18;4.00;99.90
20204;DHT22;10261;49.010;12.034;2022-12-07T02:58:32;3.90;99.90
20204;DHT22;10261;49.010;12.034;2022-12-07T02:59:47;3.80;99.90
20204;DHT22;10261;49.010;12.034;2022-12-07T03:01:01;3.80;99.90
20204;DHT22;10261;49.010;12.034;2022-12-07T03:02:17;3.80;99.90
20204;DHT22;10261;49.010;12.034;2022-12-07T03:03:24;3.90;99.90
20204;DHT22;10261;49.010;12.034;2022-12-07T03:04:36;3.70;99.90
20204;DHT22;10261;49.010;12.034;2022-12-07T03:05:59;3.70;99.90
20204;DHT22;10261;49.010;12.034;2022-12-07T03:07:09;3.70;99.90
20204;DHT22;10261;49.010;12.034;2022-12-07T03:08:15;3.70;99.90
20204;DHT22;10261;49.010;12.034;2022-12-07T03:09:29;3.80;99.90
20204;DHT22;10261;49.010;12.034;2022-12-07T03:10:42;3.90;99.90
20204;DHT22;10261;49.010;12.034;2022-12-07T03:11:51;4.00;99.90
20204;DHT22;10261;49.010;12.034;2022-12-07T03:13:04;3.90;99.90
20204;DHT22;10261;49.010;12.034;2022-12-07T03:14:13;4.00;99.90
20204;DHT22;10261;49.010;12.034;2022-12-07T03:15:21;4.00;99.90
20204;DHT22;10261;49.010;12.034;2022-12-07T03:16:33;4.00;99.90
20204;DHT22;10261;49.010;12.034;2022-12-07T03:17:40;4.00;99.90
20204;DHT22;10261;49.010;12.034;2022-12-07T03:18:49;4.00;99.90
20204;DHT22;10261;49.010;12.034;2022-12-07T03:19:55;4.00;99.90
20204;DHT22;10261;49.010;12.034;2022-12-07T03:21:04;4.00;99.90
20204;DHT22;10261;49.010;12.034;2022-12-07T03:22:11;4.00;99.90
20204;DHT22;10261;49.010;12.034;2022-12-07T03:23:15;4.10;99.90
20204;DHT22;10261;49.010;12.034;2022-12-07T03:24:21;3.90;99.90
20204;DHT22;10261;49.010;12.034;2022-12-07T03:25:24;4.00;99.90
20204;DHT22;10261;49.010;12.034;2022-12-07T03:26:31;3.90;99.90
20204;DHT22;10261;49.010;12.034;2022-12-07T03:27:38;3.90;99.90
20204;DHT22;10261;49.010;12.034;2022-12-07T03:28:45;3.90;99.90
20204;DHT22;10261;49.010;12.034;2022-12-07T03:29:51;3.90;99.90
20204;DHT22;10261;49.010;12.034;2022-12-07T03:30:59;3.80;99.90
20204;DHT22;10261;49.010;12.034;2022-12-07T03:32:08;3.90;99.90
20204;DHT22;10261;49.010;12.034;2022-12-07T03:33:18;3.90;99.90
20204;DHT22;10261;49.010;12.034;2022-12-07T03:34:27;3.90;99.90
20204;DHT22;10261;49.010;12.034;2022-12-07T03:35:34;3.90;99.90
20204;DHT22;10261;49.010;12.034;2022-12-07T03:36:42;3.80;99.90
20204;DHT22;10261;49.010;12.034;2022-12-07T03:37:50;3.80;99.90
20204;DHT22;10261;49.010;12.034;2022-12-07T03:38:58;3.70;99.90
20204;DHT22;10261;49.010;12.034;2022-12-07T03:40:10;3.90;99.90
20204;DHT22;10261;49.010;12.034;2022-12-07T03:41:17;3.90;99.90
20204;DHT22;10261;49.010;12.034;2022-12-07T03:42:22;3.90;99.90
20204;DHT22;10261;49.010;12.034;2022-12-07T03:43:24;3.90;99.90
20204;DHT22;10261;49.010;12.034;2022-12-07T03:44:27;3.90;99.90
20204;DHT22;10261;49.010;12.034;2022-12-07T03:45:36;3.90;99.90
20204;DHT22;10261;49.010;12.034;2022-12-07T03:46:44;3.90;99.90
20204;DHT22;10261;49.010;12.034;2022-12-07T03:47:53;3.90;99.90
20204;DHT22;10261;49.010;12.034;2022-12-07T03:49:08;3.90;99.90
20204;DHT22;10261;49.010;12.034;2022-12-07T03:50:15;3.90;99.90
20204;DHT22;10261;49.010;12.034;2022-12-07T03:51:26;3.90;99.90
20204;DHT22;10261;49.010;12.034;2022-12-07T03:52:33;3.90;99.90
20204;DHT22;10261;49.010;12.034;2022-12-07T03:53:43;3.90;99.90
20204;DHT22;10261;49.010;12.034;2022-12-07T03:54:49;3.90;99.90
20204;DHT22;10261;49.010;12.034;2022-12-07T03:55:56;3.90;99.90
20204;DHT22;10261;49.010;12.034;2022-12-07T03:56:59;3.90;99.90
20204;DHT22;10261;49.010;12.034;2022-12-07T03:58:06;3.80;99.90
20204;DHT22;10261;49.010;12.034;2022-12-07T03:59:09;3.80;99.90
20204;DHT22;10261;49.010;12.034;2022-12-07T04:00:14;4.00;99.90
20204;DHT22;10261;49.010;12.034;2022-12-07T04:01:17;3.90;99.90
20204;DHT22;10261;49.010;12.034;2022-12-07T04:02:22;3.80;99.90
20204;DHT22;10261;49.010;12.034;2022-12-07T04:03:26;3.80;99.90
20204;DHT22;10261;49.010;12.034;2022-12-07T04:04:29;3.80;99.90
20204;DHT22;10261;49.010;12.034;2022-12-07T04:05:32;3.70;99.90
20204;DHT22;10261;49.010;12.034;2022-12-07T04:06:35;3.80;99.90
20204;DHT22;10261;49.010;12.034;2022-12-07T04:07:37;3.90;99.90
20204;DHT22;10261;49.010;12.034;2022-12-07T04:08:40;3.80;99.90
20204;DHT22;10261;49.010;12.034;2022-12-07T04:09:42;3.80;99.90
20204;DHT22;10261;49.010;12.034;2022-12-07T04:10:45;3.70;99.90
20204;DHT22;10261;49.010;12.034;2022-12-07T04:11:47;3.70;99.90
20204;DHT22;10261;49.010;12.034;2022-12-07T04:12:50;3.90;99.90
20204;DHT22;10261;49.010;12.034;2022-12-07T04:13:52;3.90;99.90
20204;DHT22;10261;49.010;12.034;2022-12-07T04:15:12;3.80;99.90
20204;DHT22;10261;49.010;12.034;2022-12-07T04:16:15;3.80;99.90
20204;DHT22;10261;49.010;12.034;2022-12-07T04:17:17;3.80;99.90
20204;DHT22;10261;49.010;12.034;2022-12-07T04:18:20;3.80;99.90
20204;DHT22;10261;49.010;12.034;2022-12-07T04:19:25;3.80;99.90
20204;DHT22;10261;49.010;12.034;2022-12-07T04:20:28;3.80;99.90
20204;DHT22;10261;49.010;12.034;2022-12-07T04:21:30;3.80;99.90
20204;DHT22;10261;49.010;12.034;2022-12-07T04:22:33;3.80;99.90
20204;DHT22;10261;49.010;12.034;2022-12-07T04:23:35;3.90;99.90
20204;DHT22;10261;49.010;12.034;2022-12-07T04:24:38;4.00;99.90
20204;DHT22;10261;49.010;12.034;2022-12-07T04:25:40;4.00;99.90
20204;DHT22;10261;49.010;12.034;2022-12-07T04:26:44;4.00;99.90
20204;DHT22;10261;49.010;12.034;2022-12-07T04:27:47;4.00;99.90
20204;DHT22;10261;49.010;12.034;2022-12-07T04:28:49;4.00;99.90
20204;DHT22;10261;49.010;12.034;2022-12-07T04:29:52;4.00;99.90
20204;DHT22;10261;49.010;12.034;2022-12-07T04:30:57;4.00;99.90
20204;DHT22;10261;49.010;12.034;2022-12-07T04:31:59;4.00;99.90
20204;DHT22;10261;49.010;12.034;2022-12-07T04:33:02;3.90;99.90
20204;DHT22;10261;49.010;12.034;2022-12-07T04:34:05;4.00;99.90
20204;DHT22;10261;49.010;12.034;2022-12-07T04:35:09;3.90;99.90
20204;DHT22;10261;49.010;12.034;2022-12-07T04:36:11;3.90;99.90
20204;DHT22;10261;49.010;12.034;2022-12-07T04:37:14;3.90;99.90
20204;DHT22;10261;49.010;12.034;2022-12-07T04:38:16;3.80;99.90
20204;DHT22;10261;49.010;12.034;2022-12-07T04:39:22;3.70;99.90
20204;DHT22;10261;49.010;12.034;2022-12-07T04:40:24;3.70;99.90
20204;DHT22;10261;49.010;12.034;2022-12-07T04:41:27;3.80;99.90
20204;DHT22;10261;49.010;12.034;2022-12-07T04:42:29;3.80;99.90
20204;DHT22;10261;49.010;12.034;2022-12-07T04:43:32;3.80;99.90
20204;DHT22;10261;49.010;12.034;2022-12-07T04:44:34;3.80;99.90
20204;DHT22;10261;49.010;12.034;2022-12-07T04:45:37;3.80;99.90
20204;DHT22;10261;49.010;12.034;2022-12-07T04:46:39;3.90;99.90
20204;DHT22;10261;49.010;12.034;2022-12-07T04:47:43;3.90;99.90
20204;DHT22;10261;49.010;12.034;2022-12-07T04:48:45;3.80;99.90
20204;DHT22;10261;49.010;12.034;2022-12-07T04:49:48;3.70;99.90
20204;DHT22;10261;49.010;12.034;2022-12-07T04:50:51;3.80;99.90
20204;DHT22;10261;49.010;12.034;2022-12-07T04:51:54;3.80;99.90
20204;DHT22;10261;49.010;12.034;2022-12-07T04:52:56;3.70;99.90
20204;DHT22;10261;49.010;12.034;2022-12-07T04:53:59;3.80;99.90
20204;DHT22;10261;49.010;12.034;2022-12-07T04:55:01;3.80;99.90
20204;DHT22;10261;49.010;12.034;2022-12-07T04:56:05;3.80;99.90
20204;DHT22;10261;49.010;12.034;2022-12-07T04:57:07;3.80;99.90
20204;DHT22;10261;49.010;12.034;2022-12-07T04:58:10;3.80;99.90
20204;DHT22;10261;49.010;12.034;2022-12-07T04:59:12;3.70;99.90
20204;DHT22;10261;49.010;12.034;2022-12-07T05:00:16;3.70;99.90
20204;DHT22;10261;49.010;12.034;2022-12-07T05:01:18;3.70;99.90
20204;DHT22;10261;49.010;12.034;2022-12-07T05:02:22;3.70;99.90
20204;DHT22;10261;49.010;12.034;2022-12-07T05:03:24;3.60;99.90
20204;DHT22;10261;49.010;12.034;2022-12-07T05:04:27;3.70;99.90
20204;DHT22;10261;49.010;12.034;2022-12-07T05:05:29;3.60;99.90
20204;DHT22;10261;49.010;12.034;2022-12-07T05:06:34;3.60;99.90
20204;DHT22;10261;49.010;12.034;2022-12-07T05:07:36;3.60;99.90
20204;DHT22;10261;49.010;12.034;2022-12-07T05:08:39;3.50;99.90
20204;DHT22;10261;49.010;12.034;2022-12-07T05:09:41;3.40;99.90
20204;DHT22;10261;49.010;12.034;2022-12-07T05:10:44;3.50;99.90
20204;DHT22;10261;49.010;12.034;2022-12-07T05:11:46;3.40;99.90
20204;DHT22;10261;49.010;12.034;2022-12-07T05:12:49;3.30;99.90
20204;DHT22;10261;49.010;12.034;2022-12-07T05:13:51;3.20;99.90
20204;DHT22;10261;49.010;12.034;2022-12-07T05:14:54;3.20;99.90
20204;DHT22;10261;49.010;12.034;2022-12-07T05:15:57;3.40;99.90
20204;DHT22;10261;49.010;12.034;2022-12-07T05:16:59;3.20;99.90
20204;DHT22;10261;49.010;12.034;2022-12-07T05:18:02;3.30;99.90
20204;DHT22;10261;49.010;12.034;2022-12-07T05:19:05;3.20;99.90
20204;DHT22;10261;49.010;12.034;2022-12-07T05:20:09;3.10;99.90
20204;DHT22;10261;49.010;12.034;2022-12-07T05:21:11;3.20;99.90
20204;DHT22;10261;49.010;12.034;2022-12-07T05:22:16;3.20;99.90
20204;DHT22;10261;49.010;12.034;2022-12-07T05:23:19;3.20;99.90
20204;DHT22;10261;49.010;12.034;2022-12-07T05:24:21;2.80;99.90
20204;DHT22;10261;49.010;12.034;2022-12-07T05:25:24;3.30;99.90
20204;DHT22;10261;49.010;12.034;2022-12-07T05:26:26;3.30;99.90
20204;DHT22;10261;49.010;12.034;2022-12-07T05:27:29;3.30;99.90
20204;DHT22;10261;49.010;12.034;2022-12-07T05:28:31;3.30;99.90
20204;DHT22;10261;49.010;12.034;2022-12-07T05:29:34;3.30;99.90
20204;DHT22;10261;49.010;12.034;2022-12-07T05:30:36;3.30;99.90
20204;DHT22;10261;49.010;12.034;2022-12-07T05:31:39;3.20;99.90
20204;DHT22;10261;49.010;12.034;2022-12-07T05:32:41;3.10;99.90
20204;DHT22;10261;49.010;12.034;2022-12-07T05:33:44;3.10;99.90
20204;DHT22;10261;49.010;12.034;2022-12-07T05:34:46;3.10;99.90
20204;DHT22;10261;49.010;12.034;2022-12-07T05:35:49;3.00;99.90
20204;DHT22;10261;49.010;12.034;2022-12-07T05:36:51;2.80;99.90
20204;DHT22;10261;49.010;12.034;2022-12-07T05:37:55;2.70;99.90
20204;DHT22;10261;49.010;12.034;2022-12-07T05:38:58;2.70;99.90
20204;DHT22;10261;49.010;12.034;2022-12-07T05:40:02;2.60;99.90
20204;DHT22;10261;49.010;12.034;2022-12-07T05:41:06;2.60;99.90
20204;DHT22;10261;49.010;12.034;2022-12-07T05:42:10;2.60;99.90
20204;DHT22;10261;49.010;12.034;2022-12-07T05:43:15;2.60;99.90
20204;DHT22;10261;49.010;12.034;2022-12-07T05:44:17;2.50;99.90
20204;DHT22;10261;49.010;12.034;2022-12-07T05:45:20;2.60;99.90
20204;DHT22;10261;49.010;12.034;2022-12-07T05:46:22;2.50;99.90
20204;DHT22;10261;49.010;12.034;2022-12-07T05:47:25;2.60;99.90
20204;DHT22;10261;49.010;12.034;2022-12-07T05:48:27;2.60;99.90
20204;DHT22;10261;49.010;12.034;2022-12-07T05:49:30;2.60;99.90
20204;DHT22;10261;49.010;12.034;2022-12-07T05:50:32;2.70;99.90
20204;DHT22;10261;49.010;12.034;2022-12-07T05:51:35;2.50;99.90
20204;DHT22;10261;49.010;12.034;2022-12-07T05:52:37;2.40;99.90
20204;DHT22;10261;49.010;12.034;2022-12-07T05:53:41;2.30;99.90
20204;DHT22;10261;49.010;12.034;2022-12-07T05:54:43;2.40;99.90
20204;DHT22;10261;49.010;12.034;2022-12-07T05:55:46;2.40;99.90
20204;DHT22;10261;49.010;12.034;2022-12-07T05:56:48;2.40;99.90
20204;DHT22;10261;49.010;12.034;2022-12-07T05:57:51;2.30;99.90
20204;DHT22;10261;49.010;12.034;2022-12-07T05:59:09;2.30;99.90
20204;DHT22;10261;49.010;12.034;2022-12-07T06:00:26;2.30;99.90
20204;DHT22;10261;49.010;12.034;2022-12-07T06:01:28;2.30;99.90
20204;DHT22;10261;49.010;12.034;2022-12-07T06:02:31;2.30;99.90
20204;DHT22;10261;49.010;12.034;2022-12-07T06:03:34;2.50;99.90
20204;DHT22;10261;49.010;12.034;2022-12-07T06:04:37;2.50;99.90
20204;DHT22;10261;49.010;12.034;2022-12-07T06:05:40;2.50;99.90
20204;DHT22;10261;49.010;12.034;2022-12-07T06:06:43;2.50;99.90
20204;DHT22;10261;49.010;12.034;2022-12-07T06:07:46;2.50;99.90
20204;DHT22;10261;49.010;12.034;2022-12-07T06:08:49;2.50;99.90
20204;DHT22;10261;49.010;12.034;2022-12-07T06:09:52;2.50;99.90
20204;DHT22;10261;49.010;12.034;2022-12-07T06:10:55;2.60;99.90
20204;DHT22;10261;49.010;12.034;2022-12-07T06:12:12;2.60;99.90
20204;DHT22;10261;49.010;12.034;2022-12-07T06:13:33;2.70;99.90
20204;DHT22;10261;49.010;12.034;2022-12-07T06:14:36;2.70;99.90
20204;DHT22;10261;49.010;12.034;2022-12-07T06:15:39;2.60;99.90
20204;DHT22;10261;49.010;12.034;2022-12-07T06:16:41;2.50;99.90
20204;DHT22;10261;49.010;12.034;2022-12-07T06:17:44;2.40;99.90
20204;DHT22;10261;49.010;12.034;2022-12-07T06:18:47;1.40;99.90
20204;DHT22;10261;49.010;12.034;2022-12-07T06:19:49;2.40;99.90
20204;DHT22;10261;49.010;12.034;2022-12-07T06:20:52;2.50;99.90
20204;DHT22;10261;49.010;12.034;2022-12-07T06:21:55;2.60;99.90
20204;DHT22;10261;49.010;12.034;2022-12-07T06:22:58;2.60;99.90
20204;DHT22;10261;49.010;12.034;2022-12-07T06:24:02;2.60;99.90
20204;DHT22;10261;49.010;12.034;2022-12-07T06:25:05;2.50;99.90
20204;DHT22;10261;49.010;12.034;2022-12-07T06:26:10;2.50;99.90
20204;DHT22;10261;49.010;12.034;2022-12-07T06:27:13;2.60;99.90
20204;DHT22;10261;49.010;12.034;2022-12-07T06:28:16;2.50;99.90
20204;DHT22;10261;49.010;12.034;2022-12-07T06:29:18;2.50;99.90
20204;DHT22;10261;49.010;12.034;2022-12-07T06:30:21;2.50;99.90
20204;DHT22;10261;49.010;12.034;2022-12-07T06:31:23;2.60;99.90
20204;DHT22;10261;49.010;12.034;2022-12-07T06:32:26;2.50;99.90
20204;DHT22;10261;49.010;12.034;2022-12-07T06:33:29;2.50;99.90
20204;DHT22;10261;49.010;12.034;2022-12-07T06:34:31;2.60;99.90
20204;DHT22;10261;49.010;12.034;2022-12-07T06:35:34;2.60;99.90
20204;DHT22;10261;49.010;12.034;2022-12-07T06:36:38;2.60;99.90
20204;DHT22;10261;49.010;12.034;2022-12-07T06:37:40;2.60;99.90
20204;DHT22;10261;49.010;12.034;2022-12-07T06:38:43;2.50;99.90
20204;DHT22;10261;49.010;12.034;2022-12-07T06:39:46;2.60;99.90
20204;DHT22;10261;49.010;12.034;2022-12-07T06:40:49;2.60;99.90
20204;DHT22;10261;49.010;12.034;2022-12-07T06:41:51;2.60;99.90
20204;DHT22;10261;49.010;12.034;2022-12-07T06:42:55;2.50;99.90
20204;DHT22;10261;49.010;12.034;2022-12-07T06:43:57;2.50;99.90
20204;DHT22;10261;49.010;12.034;2022-12-07T06:45:00;2.50;99.90
20204;DHT22;10261;49.010;12.034;2022-12-07T06:46:02;2.50;99.90
20204;DHT22;10261;49.010;12.034;2022-12-07T06:47:05;2.50;99.90
20204;DHT22;10261;49.010;12.034;2022-12-07T06:48:29;2.60;99.90
20204;DHT22;10261;49.010;12.034;2022-12-07T06:49:32;2.70;99.90
20204;DHT22;10261;49.010;12.034;2022-12-07T06:50:35;2.60;99.90